sensor_id;sensor_type;location;lat;lon;timestamp;pressure;altitude;pressure_sealevel;temperature;humidity
72061;BME280;59925;52.136;5.420;2022-09-16T00:00:48;101240.59;;;11.87;85.05
72061;BME280;59925;52.136;5.420;2022-09-16T00:03:15;101238.47;;;11.89;84.82
72061;BME280;59925;52.136;5.420;2022-09-16T00:05:52;101241.69;;;11.91;84.82
72061;BME280;59925;52.136;5.420;2022-09-16T00:08:19;101242.47;;;11.91;84.83
72061;BME280;59925;52.136;5.420;2022-09-16T00:10:46;101241.13;;;11.94;84.84
72061;BME280;59925;52.136;5.420;2022-09-16T00:13:13;101236.56;;;11.94;84.64
72061;BME280;59925;52.136;5.420;2022-09-16T00:15:44;101230.38;;;11.94;84.87
72061;BME280;59925;52.136;5.420;2022-09-16T00:18:11;101237.09;;;11.91;85.04
72061;BME280;59925;52.136;5.420;2022-09-16T00:20:49;101237.38;;;11.90;85.24
72061;BME280;59925;52.136;5.420;2022-09-16T00:23:17;101238.47;;;11.89;85.16
72061;BME280;59925;52.136;5.420;2022-09-16T00:25:48;101222.59;;;11.92;85.10
72061;BME280;59925;52.136;5.420;2022-09-16T00:28:15;101226.38;;;11.96;85.10
72061;BME280;59925;52.136;5.420;2022-09-16T00:30:41;101226.38;;;11.96;85.08
72061;BME280;59925;52.136;5.420;2022-09-16T00:33:08;101224.47;;;11.97;85.38
72061;BME280;59925;52.136;5.420;2022-09-16T00:35:35;101227.69;;;11.94;85.20
72061;BME280;59925;52.136;5.420;2022-09-16T00:38:01;101229.84;;;11.97;85.12
72061;BME280;59925;52.136;5.420;2022-09-16T00:40:28;101229.06;;;11.96;85.06
72061;BME280;59925;52.136;5.420;2022-09-16T00:42:54;101237.38;;;11.90;85.03
72061;BME280;59925;52.136;5.420;2022-09-16T00:45:23;101235.50;;;11.90;84.94
72061;BME280;59925;52.136;5.420;2022-09-16T00:48:06;101232.00;;;11.90;84.64
72061;BME280;59925;52.136;5.420;2022-09-16T00:50:40;101226.88;;;11.88;84.83
72061;BME280;59925;52.136;5.420;2022-09-16T00:53:13;101230.13;;;11.90;84.45
72061;BME280;59925;52.136;5.420;2022-09-16T00:55:41;101223.13;;;11.89;84.70
72061;BME280;59925;52.136;5.420;2022-09-16T01:01:10;101238.47;;;11.89;84.63
72061;BME280;59925;52.136;5.420;2022-09-16T01:03:43;101229.56;;;11.88;84.47
72061;BME280;59925;52.136;5.420;2022-09-16T01:06:12;101224.47;;;11.87;84.81
72061;BME280;59925;52.136;5.420;2022-09-16T01:08:43;101227.41;;;11.85;84.52
72061;BME280;59925;52.136;5.420;2022-09-16T01:11:10;101224.22;;;11.83;84.32
72061;BME280;59925;52.136;5.420;2022-09-16T01:13:38;101224.47;;;11.81;84.05
72061;BME280;59925;52.136;5.420;2022-09-16T01:19:11;101226.38;;;11.81;84.32
72061;BME280;59925;52.136;5.420;2022-09-16T01:22:06;101232.53;;;11.81;84.44
72061;BME280;59925;52.136;5.420;2022-09-16T01:27:57;101223.94;;;11.79;84.81
72061;BME280;59925;52.136;5.420;2022-09-16T01:33:16;101228.78;;;11.77;85.25
72061;BME280;59925;52.136;5.420;2022-09-16T01:41:52;101222.31;;;11.73;85.20
72061;BME280;59925;52.136;5.420;2022-09-16T01:44:46;101221.25;;;11.69;85.25
72061;BME280;59925;52.136;5.420;2022-09-16T01:47:34;101224.44;;;11.66;84.63
72061;BME280;59925;52.136;5.420;2022-09-16T01:50:18;101221.50;;;11.62;84.87
72061;BME280;59925;52.136;5.420;2022-09-16T01:52:57;101222.59;;;11.56;84.89
72061;BME280;59925;52.136;5.420;2022-09-16T01:55:31;101229.56;;;11.52;84.74
72061;BME280;59925;52.136;5.420;2022-09-16T01:58:14;101222.28;;;11.47;84.82
72061;BME280;59925;52.136;5.420;2022-09-16T02:00:44;101229.25;;;11.43;84.81
72061;BME280;59925;52.136;5.420;2022-09-16T02:03:17;101235.69;;;11.42;85.07
72061;BME280;59925;52.136;5.420;2022-09-16T02:05:58;101229.25;;;11.38;84.71
72061;BME280;59925;52.136;5.420;2022-09-16T02:08:39;101217.44;;;11.34;84.95
72061;BME280;59925;52.136;5.420;2022-09-16T02:11:11;101231.94;;;11.33;84.95
72061;BME280;59925;52.136;5.420;2022-09-16T02:13:56;101227.91;;;11.30;84.96
72061;BME280;59925;52.136;5.420;2022-09-16T02:16:34;101230.28;;;11.27;84.86
72061;BME280;59925;52.136;5.420;2022-09-16T02:19:10;101230.56;;;11.25;84.74
72061;BME280;59925;52.136;5.420;2022-09-16T02:21:38;101226.53;;;11.23;85.27
72061;BME280;59925;52.136;5.420;2022-09-16T02:24:15;101224.66;;;11.23;85.68
72061;BME280;59925;52.136;5.420;2022-09-16T02:26:47;101225.19;;;11.25;85.64
72061;BME280;59925;52.136;5.420;2022-09-16T02:29:20;101223.31;;;11.31;85.68
72061;BME280;59925;52.136;5.420;2022-09-16T02:31:49;101221.47;;;11.37;85.30
72061;BME280;59925;52.136;5.420;2022-09-16T02:34:26;101217.72;;;11.38;85.19
72061;BME280;59925;52.136;5.420;2022-09-16T02:36:59;101223.88;;;11.38;85.55
72061;BME280;59925;52.136;5.420;2022-09-16T02:39:30;101220.41;;;11.38;85.73
72061;BME280;59925;52.136;5.420;2022-09-16T02:41:57;101224.97;;;11.37;85.68
72061;BME280;59925;52.136;5.420;2022-09-16T02:44:24;101218.50;;;11.38;85.69
72061;BME280;59925;52.136;5.420;2022-09-16T02:47:16;101214.75;;;11.39;85.67
72061;BME280;59925;52.136;5.420;2022-09-16T02:52:28;101217.97;;;11.36;85.64
72061;BME280;59925;52.136;5.420;2022-09-16T02:55:21;101227.66;;;11.37;86.04
72061;BME280;59925;52.136;5.420;2022-09-16T02:57:49;101235.69;;;11.37;85.93
72061;BME280;59925;52.136;5.420;2022-09-16T03:00:16;101251.53;;;11.39;86.35
72061;BME280;59925;52.136;5.420;2022-09-16T03:02:43;101249.91;;;11.38;86.70
72061;BME280;59925;52.136;5.420;2022-09-16T03:05:09;101247.78;;;11.40;87.07
72061;BME280;59925;52.136;5.420;2022-09-16T03:07:38;101230.06;;;11.39;87.25
72061;BME280;59925;52.136;5.420;2022-09-16T03:10:08;101228.44;;;11.38;87.57
72061;BME280;59925;52.136;5.420;2022-09-16T03:13:07;101222.53;;;11.35;87.86
72061;BME280;59925;52.136;5.420;2022-09-16T03:16:14;101217.44;;;11.34;88.08
72061;BME280;59925;52.136;5.420;2022-09-16T03:21:33;101210.69;;;11.21;88.50
72061;BME280;59925;52.136;5.420;2022-09-16T03:24:20;101212.53;;;11.15;88.45
72061;BME280;59925;52.136;5.420;2022-09-16T03:34:48;101247.13;;;11.07;88.95
72061;BME280;59925;52.136;5.420;2022-09-16T03:37:19;101242.81;;;11.06;89.01
72061;BME280;59925;52.136;5.420;2022-09-16T03:39:51;101232.91;;;11.06;89.40
72061;BME280;59925;52.136;5.420;2022-09-16T03:42:19;101232.41;;;11.09;89.45
72061;BME280;59925;52.136;5.420;2022-09-16T03:44:45;101232.94;;;11.11;89.61
72061;BME280;59925;52.136;5.420;2022-09-16T03:47:12;101230.25;;;11.11;89.78
72061;BME280;59925;52.136;5.420;2022-09-16T03:49:39;101222.72;;;11.13;89.83
72061;BME280;59925;52.136;5.420;2022-09-16T03:52:05;101221.41;;;11.16;90.02
72061;BME280;59925;52.136;5.420;2022-09-16T03:54:33;101210.41;;;11.17;89.80
72061;BME280;59925;52.136;5.420;2022-09-16T03:57:00;101206.66;;;11.18;89.94
72061;BME280;59925;52.136;5.420;2022-09-16T03:59:27;101203.19;;;11.18;90.21
72061;BME280;59925;52.136;5.420;2022-09-16T04:01:54;101199.41;;;11.19;90.19
72061;BME280;59925;52.136;5.420;2022-09-16T04:04:21;101201.84;;;11.21;90.00
72061;BME280;59925;52.136;5.420;2022-09-16T04:06:47;101205.59;;;11.19;90.17
72061;BME280;59925;52.136;5.420;2022-09-16T04:09:13;101200.50;;;11.18;89.96
72061;BME280;59925;52.136;5.420;2022-09-16T04:11:41;101202.09;;;11.14;90.14
72061;BME280;59925;52.136;5.420;2022-09-16T04:14:08;101205.00;;;11.12;89.84
72061;BME280;59925;52.136;5.420;2022-09-16T04:16:34;101196.97;;;11.07;90.02
72061;BME280;59925;52.136;5.420;2022-09-16T04:19:00;101205.25;;;11.00;90.13
72061;BME280;59925;52.136;5.420;2022-09-16T04:21:27;101199.88;;;10.95;90.01
72061;BME280;59925;52.136;5.420;2022-09-16T04:23:54;101195.56;;;10.94;89.94
72061;BME280;59925;52.136;5.420;2022-09-16T04:26:20;101202.81;;;10.94;90.19
72061;BME280;59925;52.136;5.420;2022-09-16T04:28:47;101203.06;;;10.87;90.05
72061;BME280;59925;52.136;5.420;2022-09-16T04:31:14;101202.78;;;10.88;89.99
72061;BME280;59925;52.136;5.420;2022-09-16T04:33:41;101208.72;;;10.91;90.33
72061;BME280;59925;52.136;5.420;2022-09-16T04:36:10;101210.28;;;10.86;89.80
72061;BME280;59925;52.136;5.420;2022-09-16T04:38:38;101211.09;;;10.82;89.92
72061;BME280;59925;52.136;5.420;2022-09-16T04:41:16;101215.63;;;10.76;89.82
72061;BME280;59925;52.136;5.420;2022-09-16T04:43:44;101216.13;;;10.73;89.78
72061;BME280;59925;52.136;5.420;2022-09-16T04:46:11;101206.19;;;10.68;89.89
72061;BME280;59925;52.136;5.420;2022-09-16T04:48:38;101209.16;;;10.67;89.76
72061;BME280;59925;52.136;5.420;2022-09-16T04:51:07;101207.81;;;10.64;89.76
72061;BME280;59925;52.136;5.420;2022-09-16T04:53:35;101208.03;;;10.63;89.78
72061;BME280;59925;52.136;5.420;2022-09-16T04:56:06;101206.97;;;10.64;90.03
72061;BME280;59925;52.136;5.420;2022-09-16T04:58:33;101202.69;;;10.57;89.83
72061;BME280;59925;52.136;5.420;2022-09-16T05:01:08;101205.34;;;10.57;89.79
72061;BME280;59925;52.136;5.420;2022-09-16T05:03:42;101201.56;;;10.53;90.08
72061;BME280;59925;52.136;5.420;2022-09-16T05:06:11;101208.50;;;10.49;89.97
72061;BME280;59925;52.136;5.420;2022-09-16T05:08:42;101202.09;;;10.50;90.12
72061;BME280;59925;52.136;5.420;2022-09-16T05:11:11;101212.53;;;10.47;89.77
72061;BME280;59925;52.136;5.420;2022-09-16T05:13:38;101204.75;;;10.45;90.26
72061;BME280;59925;52.136;5.420;2022-09-16T05:16:07;101200.97;;;10.41;89.98
72061;BME280;59925;52.136;5.420;2022-09-16T05:18:35;101211.38;;;10.37;89.99
72061;BME280;59925;52.136;5.420;2022-09-16T05:21:04;101202.22;;;10.33;90.36
72061;BME280;59925;52.136;5.420;2022-09-16T05:23:31;101196.31;;;10.31;90.17
72061;BME280;59925;52.136;5.420;2022-09-16T05:26:06;101198.19;;;10.31;90.09
72061;BME280;59925;52.136;5.420;2022-09-16T05:28:34;101198.19;;;10.31;90.09
72061;BME280;59925;52.136;5.420;2022-09-16T05:31:18;101208.66;;;10.32;90.36
72061;BME280;59925;52.136;5.420;2022-09-16T05:34:00;101206.84;;;10.38;90.29
72061;BME280;59925;52.136;5.420;2022-09-16T05:36:31;101211.41;;;10.42;90.75
72061;BME280;59925;52.136;5.420;2022-09-16T05:38:58;101217.09;;;10.51;90.28
72061;BME280;59925;52.136;5.420;2022-09-16T05:41:44;101220.91;;;10.61;90.95
72061;BME280;59925;52.136;5.420;2022-09-16T05:44:11;101226.06;;;10.72;90.77
72061;BME280;59925;52.136;5.420;2022-09-16T05:46:38;101218.06;;;10.83;91.06
72061;BME280;59925;52.136;5.420;2022-09-16T05:49:10;101215.41;;;10.88;90.75
72061;BME280;59925;52.136;5.420;2022-09-16T05:51:38;101221.84;;;10.87;90.84
72061;BME280;59925;52.136;5.420;2022-09-16T05:54:06;101231.00;;;10.91;90.89
72061;BME280;59925;52.136;5.420;2022-09-16T05:56:33;101231.31;;;11.05;91.10
72061;BME280;59925;52.136;5.420;2022-09-16T05:58:59;101227.91;;;11.30;91.07
72061;BME280;59925;52.136;5.420;2022-09-16T06:01:29;101230.63;;;11.56;90.37
72061;BME280;59925;52.136;5.420;2022-09-16T06:03:56;101231.41;;;11.46;89.23
72061;BME280;59925;52.136;5.420;2022-09-16T06:06:36;101229.50;;;11.31;89.09
72061;BME280;59925;52.136;5.420;2022-09-16T06:09:17;101227.88;;;11.25;89.30
72061;BME280;59925;52.136;5.420;2022-09-16T06:11:46;101240.50;;;11.25;89.34
72061;BME280;59925;52.136;5.420;2022-09-16T06:14:14;101232.97;;;11.27;89.54
72061;BME280;59925;52.136;5.420;2022-09-16T06:16:41;101235.69;;;11.32;89.69
72061;BME280;59925;52.136;5.420;2022-09-16T06:19:13;101229.00;;;11.40;89.26
72061;BME280;59925;52.136;5.420;2022-09-16T06:21:41;101235.16;;;11.35;89.46
72061;BME280;59925;52.136;5.420;2022-09-16T06:24:10;101236.50;;;11.38;89.52
72061;BME280;59925;52.136;5.420;2022-09-16T06:26:38;101231.16;;;11.43;89.17
72061;BME280;59925;52.136;5.420;2022-09-16T06:29:06;101245.38;;;11.54;89.78
72061;BME280;59925;52.136;5.420;2022-09-16T06:31:34;101240.59;;;11.71;89.60
72061;BME280;59925;52.136;5.420;2022-09-16T06:34:03;101257.81;;;11.91;89.38
72061;BME280;59925;52.136;5.420;2022-09-16T06:36:33;101258.63;;;11.96;89.33
72061;BME280;59925;52.136;5.420;2022-09-16T06:38:59;101260.75;;;11.89;89.11
72061;BME280;59925;52.136;5.420;2022-09-16T06:41:26;101254.81;;;11.77;89.22
72061;BME280;59925;52.136;5.420;2022-09-16T06:43:52;101245.44;;;11.74;89.24
72061;BME280;59925;52.136;5.420;2022-09-16T06:46:21;101249.47;;;11.82;89.11
72061;BME280;59925;52.136;5.420;2022-09-16T06:48:50;101244.38;;;11.91;89.51
72061;BME280;59925;52.136;5.420;2022-09-16T06:53:45;101246.53;;;12.25;89.35
72061;BME280;59925;52.136;5.420;2022-09-16T06:56:13;101243.81;;;12.40;89.26
72061;BME280;59925;52.136;5.420;2022-09-16T06:58:42;101243.25;;;12.49;88.54
72061;BME280;59925;52.136;5.420;2022-09-16T07:01:14;101244.59;;;12.51;88.23
72061;BME280;59925;52.136;5.420;2022-09-16T07:03:43;101241.91;;;12.51;88.16
72061;BME280;59925;52.136;5.420;2022-09-16T07:06:11;101242.97;;;12.61;87.93
72061;BME280;59925;52.136;5.420;2022-09-16T07:08:37;101252.88;;;12.76;87.86
72061;BME280;59925;52.136;5.420;2022-09-16T07:11:07;101256.34;;;12.86;87.54
72061;BME280;59925;52.136;5.420;2022-09-16T07:13:35;101255.28;;;12.87;87.30
72061;BME280;59925;52.136;5.420;2022-09-16T07:16:13;101254.50;;;12.71;86.82
72061;BME280;59925;52.136;5.420;2022-09-16T07:18:41;101247.50;;;12.70;86.16
72061;BME280;59925;52.136;5.420;2022-09-16T07:21:13;101245.63;;;12.76;85.85
72061;BME280;59925;52.136;5.420;2022-09-16T07:23:41;101243.22;;;12.64;86.00
72061;BME280;59925;52.136;5.420;2022-09-16T07:26:13;101246.13;;;12.78;85.96
72061;BME280;59925;52.136;5.420;2022-09-16T07:28:42;101245.22;;;14.28;84.92
72061;BME280;59925;52.136;5.420;2022-09-16T07:31:10;101249.84;;;14.28;82.61
72061;BME280;59925;52.136;5.420;2022-09-16T07:33:39;101247.41;;;13.97;82.49
72061;BME280;59925;52.136;5.420;2022-09-16T07:36:07;101246.47;;;13.77;82.23
72061;BME280;59925;52.136;5.420;2022-09-16T07:38:34;101244.38;;;13.69;82.22
72061;BME280;59925;52.136;5.420;2022-09-16T07:41:15;101248.66;;;13.75;82.69
72061;BME280;59925;52.136;5.420;2022-09-16T07:43:42;101242.34;;;13.85;82.72
72061;BME280;59925;52.136;5.420;2022-09-16T07:46:10;101245.69;;;16.51;78.90
72061;BME280;59925;52.136;5.420;2022-09-16T07:48:38;101248.38;;;16.65;74.42
72061;BME280;59925;52.136;5.420;2022-09-16T07:51:07;101249.53;;;15.84;75.88
72061;BME280;59925;52.136;5.420;2022-09-16T07:53:34;101251.16;;;15.27;76.37
72061;BME280;59925;52.136;5.420;2022-09-16T07:56:06;101265.78;;;15.02;76.93
72061;BME280;59925;52.136;5.420;2022-09-16T07:58:33;101289.00;;;15.03;77.48
72061;BME280;59925;52.136;5.420;2022-09-16T08:00:59;101293.34;;;14.99;77.44
72061;BME280;59925;52.136;5.420;2022-09-16T08:03:38;101293.94;;;14.66;76.64
72061;BME280;59925;52.136;5.420;2022-09-16T08:06:07;101289.53;;;14.51;77.16
72061;BME280;59925;52.136;5.420;2022-09-16T08:08:34;101291.59;;;14.60;77.26
72061;BME280;59925;52.136;5.420;2022-09-16T08:11:00;101300.31;;;14.51;77.86
72061;BME280;59925;52.136;5.420;2022-09-16T08:13:29;101302.47;;;14.20;78.28
72061;BME280;59925;52.136;5.420;2022-09-16T08:16:03;101295.44;;;13.89;79.58
72061;BME280;59925;52.136;5.420;2022-09-16T08:18:30;101285.34;;;13.66;79.84
72061;BME280;59925;52.136;5.420;2022-09-16T08:20:57;101292.94;;;13.53;80.37
72061;BME280;59925;52.136;5.420;2022-09-16T08:23:24;101293.84;;;13.33;80.22
72061;BME280;59925;52.136;5.420;2022-09-16T08:25:57;101286.88;;;13.22;80.95
72061;BME280;59925;52.136;5.420;2022-09-16T08:28:25;101297.66;;;13.27;81.49
72061;BME280;59925;52.136;5.420;2022-09-16T08:30:58;101307.56;;;13.42;82.00
72061;BME280;59925;52.136;5.420;2022-09-16T08:33:25;101314.41;;;13.69;82.56
72061;BME280;59925;52.136;5.420;2022-09-16T08:38:31;101300.78;;;13.94;81.48
72061;BME280;59925;52.136;5.420;2022-09-16T08:41:14;101309.53;;;13.76;80.60
72061;BME280;59925;52.136;5.420;2022-09-16T08:46:50;101295.59;;;14.92;80.31
72061;BME280;59925;52.136;5.420;2022-09-16T08:52:36;101290.44;;;15.58;77.11
72061;BME280;59925;52.136;5.420;2022-09-16T08:57:38;101292.63;;;15.56;78.10
72061;BME280;59925;52.136;5.420;2022-09-16T09:00:14;101295.84;;;15.58;77.12
72061;BME280;59925;52.136;5.420;2022-09-16T09:03:39;101296.06;;;15.61;76.53
72061;BME280;59925;52.136;5.420;2022-09-16T09:09:14;101298.97;;;15.84;76.77
72061;BME280;59925;52.136;5.420;2022-09-16T09:20:36;101311.78;;;15.98;74.24
72061;BME280;59925;52.136;5.420;2022-09-16T09:23:16;101314.03;;;15.52;75.81
72061;BME280;59925;52.136;5.420;2022-09-16T09:25:56;101323.09;;;15.18;76.20
72061;BME280;59925;52.136;5.420;2022-09-16T09:28:58;101326.56;;;14.99;76.82
72061;BME280;59925;52.136;5.420;2022-09-16T09:31:45;101318.34;;;15.34;77.54
72061;BME280;59925;52.136;5.420;2022-09-16T09:40:12;101307.59;;;16.05;74.85
72061;BME280;59925;52.136;5.420;2022-09-16T09:45:31;101306.50;;;16.06;74.38
72061;BME280;59925;52.136;5.420;2022-09-16T09:48:18;101307.03;;;15.89;73.97
72061;BME280;59925;52.136;5.420;2022-09-16T09:50:48;101310.59;;;15.66;73.25
72061;BME280;59925;52.136;5.420;2022-09-16T09:55:41;101307.44;;;15.77;74.75
72061;BME280;59925;52.136;5.420;2022-09-16T09:58:18;101298.03;;;15.75;72.71
72061;BME280;59925;52.136;5.420;2022-09-16T10:00:48;101294.16;;;15.81;73.56
72061;BME280;59925;52.136;5.420;2022-09-16T10:03:18;101303.13;;;16.15;73.76
72061;BME280;59925;52.136;5.420;2022-09-16T10:05:45;101300.81;;;16.55;71.23
72061;BME280;59925;52.136;5.420;2022-09-16T10:08:22;101296.44;;;16.87;70.82
72061;BME280;59925;52.136;5.420;2022-09-16T10:11:00;101299.44;;;16.72;69.09
72061;BME280;59925;52.136;5.420;2022-09-16T10:13:29;101306.97;;;16.75;68.75
72061;BME280;59925;52.136;5.420;2022-09-16T10:16:13;101321.97;;;16.67;68.62
72061;BME280;59925;52.136;5.420;2022-09-16T10:18:40;101324.56;;;16.44;69.47
72061;BME280;59925;52.136;5.420;2022-09-16T10:21:09;101317.38;;;16.20;69.72
72061;BME280;59925;52.136;5.420;2022-09-16T10:23:37;101328.72;;;15.65;71.20
72061;BME280;59925;52.136;5.420;2022-09-16T10:29:13;101335.56;;;14.60;74.37
72061;BME280;59925;52.136;5.420;2022-09-16T10:31:40;101340.81;;;14.46;74.71
72061;BME280;59925;52.136;5.420;2022-09-16T10:34:19;101339.94;;;14.21;74.98
72061;BME280;59925;52.136;5.420;2022-09-16T10:36:59;101332.16;;;14.15;75.17
72061;BME280;59925;52.136;5.420;2022-09-16T10:39:27;101339.25;;;14.40;76.08
72061;BME280;59925;52.136;5.420;2022-09-16T10:41:55;101327.84;;;14.78;75.93
72061;BME280;59925;52.136;5.420;2022-09-16T10:44:27;101334.56;;;15.10;75.36
72061;BME280;59925;52.136;5.420;2022-09-16T10:47:02;101330.50;;;15.31;73.88
72061;BME280;59925;52.136;5.420;2022-09-16T10:49:38;101328.53;;;15.37;73.56
72061;BME280;59925;52.136;5.420;2022-09-16T10:52:08;101326.72;;;15.52;72.83
72061;BME280;59925;52.136;5.420;2022-09-16T10:54:35;101322.13;;;15.33;73.04
72061;BME280;59925;52.136;5.420;2022-09-16T10:57:01;101315.81;;;15.19;72.85
72061;BME280;59925;52.136;5.420;2022-09-16T10:59:27;101314.03;;;15.09;72.73
72061;BME280;59925;52.136;5.420;2022-09-16T11:07:26;101310.00;;;15.50;71.87
72061;BME280;59925;52.136;5.420;2022-09-16T11:10:10;101313.69;;;16.30;70.00
72061;BME280;59925;52.136;5.420;2022-09-16T11:18:06;101315.16;;;16.69;66.16
72061;BME280;59925;52.136;5.420;2022-09-16T11:26:27;101316.81;;;18.22;63.59
72061;BME280;59925;52.136;5.420;2022-09-16T11:29:09;101312.50;;;18.21;60.01
72061;BME280;59925;52.136;5.420;2022-09-16T11:42:56;101328.94;;;17.43;64.66
72061;BME280;59925;52.136;5.420;2022-09-16T11:45:40;101336.19;;;17.20;65.02
72061;BME280;59925;52.136;5.420;2022-09-16T11:48:16;101334.41;;;16.54;65.72
72061;BME280;59925;52.136;5.420;2022-09-16T11:53:56;101312.50;;;15.46;70.60
72061;BME280;59925;52.136;5.420;2022-09-16T12:12:46;101303.56;;;17.61;67.56
72061;BME280;59925;52.136;5.420;2022-09-16T12:15:23;101295.97;;;17.86;65.94
72061;BME280;59925;52.136;5.420;2022-09-16T12:18:08;101303.09;;;18.19;65.31
72061;BME280;59925;52.136;5.420;2022-09-16T12:23:27;101306.44;;;18.47;62.12
72061;BME280;59925;52.136;5.420;2022-09-16T12:26:11;101304.25;;;18.67;61.73
72061;BME280;59925;52.136;5.420;2022-09-16T12:29:07;101302.19;;;18.95;61.70
72061;BME280;59925;52.136;5.420;2022-09-16T12:31:43;101307.81;;;19.17;59.31
72061;BME280;59925;52.136;5.420;2022-09-16T12:34:17;101309.44;;;19.18;59.88
72061;BME280;59925;52.136;5.420;2022-09-16T12:36:53;101328.81;;;18.53;60.01
72061;BME280;59925;52.136;5.420;2022-09-16T12:39:22;101347.94;;;17.66;60.79
72061;BME280;59925;52.136;5.420;2022-09-16T12:42:27;101337.63;;;16.84;64.07
72061;BME280;59925;52.136;5.420;2022-09-16T12:51:02;101337.72;;;15.36;70.53
72061;BME280;59925;52.136;5.420;2022-09-16T12:53:45;101339.13;;;15.33;70.54
72061;BME280;59925;52.136;5.420;2022-09-16T12:59:13;101332.66;;;15.54;71.79
72061;BME280;59925;52.136;5.420;2022-09-16T13:01:44;101326.50;;;15.91;72.34
72061;BME280;59925;52.136;5.420;2022-09-16T13:04:19;101323.31;;;16.03;71.44
72061;BME280;59925;52.136;5.420;2022-09-16T13:06:49;101316.47;;;15.92;70.30
72061;BME280;59925;52.136;5.420;2022-09-16T13:09:22;101317.03;;;15.89;70.41
72061;BME280;59925;52.136;5.420;2022-09-16T13:11:56;101313.47;;;15.93;70.00
72061;BME280;59925;52.136;5.420;2022-09-16T13:14:47;101302.78;;;16.02;69.92
72061;BME280;59925;52.136;5.420;2022-09-16T13:17:26;101298.41;;;16.67;68.91
72061;BME280;59925;52.136;5.420;2022-09-16T13:19:53;101295.44;;;17.25;67.43
72061;BME280;59925;52.136;5.420;2022-09-16T13:22:28;101291.34;;;17.50;67.21
72061;BME280;59925;52.136;5.420;2022-09-16T13:27:38;101285.78;;;18.37;64.88
72061;BME280;59925;52.136;5.420;2022-09-16T13:32:39;101288.22;;;17.06;68.21
72061;BME280;59925;52.136;5.420;2022-09-16T13:37:44;101286.06;;;17.45;67.83
72061;BME280;59925;52.136;5.420;2022-09-16T13:40:25;101282.59;;;17.90;67.33
72061;BME280;59925;52.136;5.420;2022-09-16T13:48:34;101280.84;;;18.80;65.92
72061;BME280;59925;52.136;5.420;2022-09-16T13:51:06;101279.50;;;19.00;65.01
72061;BME280;59925;52.136;5.420;2022-09-16T13:53:43;101290.97;;;18.97;63.60
72061;BME280;59925;52.136;5.420;2022-09-16T14:05:02;101274.41;;;19.16;59.54
72061;BME280;59925;52.136;5.420;2022-09-16T14:07:45;101273.63;;;19.24;57.54
72061;BME280;59925;52.136;5.420;2022-09-16T14:10:23;101268.00;;;19.21;59.71
72061;BME280;59925;52.136;5.420;2022-09-16T14:13:46;101277.44;;;19.32;57.16
72061;BME280;59925;52.136;5.420;2022-09-16T14:16:18;101262.59;;;19.47;55.02
72061;BME280;59925;52.136;5.420;2022-09-16T14:18:55;101269.00;;;19.51;54.52
72061;BME280;59925;52.136;5.420;2022-09-16T14:21:23;101278.13;;;19.55;55.36
72061;BME280;59925;52.136;5.420;2022-09-16T14:23:50;101271.09;;;19.37;53.69
72061;BME280;59925;52.136;5.420;2022-09-16T14:26:19;101275.97;;;18.99;55.59
72061;BME280;59925;52.136;5.420;2022-09-16T14:28:46;101287.03;;;19.12;55.29
72061;BME280;59925;52.136;5.420;2022-09-16T14:31:20;101289.50;;;18.91;55.47
72061;BME280;59925;52.136;5.420;2022-09-16T14:33:54;101289.97;;;18.44;55.22
72061;BME280;59925;52.136;5.420;2022-09-16T14:36:25;101295.19;;;18.08;56.11
72061;BME280;59925;52.136;5.420;2022-09-16T14:38:59;101283.81;;;18.29;56.54
72061;BME280;59925;52.136;5.420;2022-09-16T14:41:31;101283.19;;;18.64;55.88
72061;BME280;59925;52.136;5.420;2022-09-16T14:44:08;101286.03;;;18.59;55.34
72061;BME280;59925;52.136;5.420;2022-09-16T14:46:42;101278.66;;;18.50;55.93
72061;BME280;59925;52.136;5.420;2022-09-16T14:49:11;101267.13;;;18.85;55.21
72061;BME280;59925;52.136;5.420;2022-09-16T14:51:44;101277.53;;;18.92;53.08
72061;BME280;59925;52.136;5.420;2022-09-16T14:54:17;101267.56;;;18.69;52.51
72061;BME280;59925;52.136;5.420;2022-09-16T14:57:04;101272.94;;;18.61;52.38
72061;BME280;59925;52.136;5.420;2022-09-16T14:59:32;101267.03;;;18.59;51.59
72061;BME280;59925;52.136;5.420;2022-09-16T15:05:19;101263.91;;;18.83;51.73
72061;BME280;59925;52.136;5.420;2022-09-16T15:07:48;101260.56;;;18.77;49.73
72061;BME280;59925;52.136;5.420;2022-09-16T15:10:36;101267.34;;;18.57;49.65
72061;BME280;59925;52.136;5.420;2022-09-16T15:13:20;101262.38;;;18.50;49.10
72061;BME280;59925;52.136;5.420;2022-09-16T15:15:50;101258.63;;;18.37;50.01
72061;BME280;59925;52.136;5.420;2022-09-16T15:18:32;101262.38;;;18.19;50.66
72061;BME280;59925;52.136;5.420;2022-09-16T15:23:29;101270.06;;;17.57;53.03
72061;BME280;59925;52.136;5.420;2022-09-16T15:25:57;101268.63;;;17.23;53.38
72061;BME280;59925;52.136;5.420;2022-09-16T15:28:28;101278.44;;;17.33;54.08
72061;BME280;59925;52.136;5.420;2022-09-16T15:30:54;101268.38;;;17.48;54.67
72061;BME280;59925;52.136;5.420;2022-09-16T15:33:35;101263.81;;;17.57;54.72
72061;BME280;59925;52.136;5.420;2022-09-16T15:36:03;101263.06;;;17.42;54.52
72061;BME280;59925;52.136;5.420;2022-09-16T15:38:29;101263.91;;;17.29;54.58
72061;BME280;59925;52.136;5.420;2022-09-16T15:41:04;101260.94;;;17.03;54.85
72061;BME280;59925;52.136;5.420;2022-09-16T15:43:34;101264.63;;;16.93;55.77
72061;BME280;59925;52.136;5.420;2022-09-16T15:46:12;101271.88;;;16.83;56.10
72061;BME280;59925;52.136;5.420;2022-09-16T15:48:43;101280.16;;;16.59;55.53
72061;BME280;59925;52.136;5.420;2022-09-16T15:53:58;101284.81;;;16.26;55.95
72061;BME280;59925;52.136;5.420;2022-09-16T15:56:40;101285.06;;;16.10;56.93
72061;BME280;59925;52.136;5.420;2022-09-16T15:59:26;101292.84;;;15.98;57.11